MROCKBPT

Guest
Details From MROC - San Jose Juan Santamaria Intl
To KBPT - Southeast Texas Rgnl
Flight Number -
Tags Generated
Created
Modified
Stats Distance 1,319 nm / 2,443 km
Max Altitude 0 ft / 0 m
Waypoints 4
Social Downloads 1
Likes 0
Share VATSIM

Download

Looking for another format? Having issues loading an existing format? Contact us
Advertisement - Login to hide

Notes

Generated

Route

MROC LLACL R0310 KBPT

ID Type Via Altitude Latitude Longitude Leg Dist Tot Dist Heading (true) Name
O MROC APT - 0 ft / 0 m 9.98900˚ -84.22186˚ - 0 nm - -
LLACL FIX - 0 ft / 0 m 26.33333˚ -92.00000˚ 1076 nm 1076 nm 337° / 334° -
R0310 FIX - 0 ft / 0 m 29.95799˚ -94.02536˚ 242 nm 1319 nm 334° / 333° -
O KBPT APT - 0 ft / 0 m 29.95799˚ -94.02536˚ 0 nm 1319 nm 0° / 360° -

Altitude Profile

Advertisement - Login to hide

Weather


0- 5 10 15 20 25 30 35+ Temperature / ° C

Clouds and Precipitation
Forecast for 2018-05-24 00:00 UTC. Updated 2 hours ago

Ground ~20,000 ft ~40,000 ft Winds

MROC

Details ICAO MROC (SJO)
Name San Jose Juan Santamaria Intl
Region Costa Rica
Timezone America/Costa_Rica (UTC-6.0)
Stats Elevation 3,021 ft / 921 m (AMSL)
Location 9.993927° -84.208884°
Runways 1
Magnetic Variation 1.782° W

METAR

MROC 240100Z VRB02KT 9999 FEW010 BKN100 21/20 A3004 NOSIG

Decode

TAF

TAF MROC 232300Z 2400/2424 25006KT 9999 FEW030 TX30/2419Z TN19/2410Z TEMPO 2401/2404 VRB02KT 5000 RA BR BKN010 TEMPO 2406/2413 09005KT TEMPO 2421/2424 3000 TSRA FEW010CB

Decode

Departure Runways

ID Width Length Bearing (true) Bearing (mag) Surface Threshold Offset Overrun Length
07 151 ft / 46 m 9,994 ft / 3,046 m 68.91° 70.69° Asphalt 0 ft / 0 m 200 ft / 61 m
25 151 ft / 46 m 9,994 ft / 3,046 m 248.92° 250.70° Asphalt 1,969 ft / 600 m 200 ft / 61 m

KBPT

Details ICAO KBPT (BPT)
Name SOUTHEAST TEXAS RGNL
Region United States
Timezone America/Chicago (UTC-5.0)
Stats Elevation 15 ft / 5 m (AMSL)
Location 29.950881° -94.021036°
Runways 2
Magnetic Variation 1.616° E

METAR

KBPT 240053Z 13004KT 10SM CLR 26/20 A3000 RMK AO2 RAE02 SLP157 P0000 T02560200

Decode

TAF

KBPT 232325Z 2400/2424 VRB03KT P6SM SCT050 BKN100 FM241600 12007KT P6SM VCTS SCT025 OVC050CB TEMPO 2420/2424 P6SM TSRA OVC025CB

Decode

Destination Runways

ID Width Length Bearing (true) Bearing (mag) Surface Threshold Offset Overrun Length
12 151 ft / 46 m 6,737 ft / 2,054 m 121.04° 119.42° Concrete 0 ft / 0 m 0 ft / 0 m
16 151 ft / 46 m 5,088 ft / 1,551 m 165.99° 164.37° Asphalt 0 ft / 0 m 0 ft / 0 m
30 151 ft / 46 m 6,737 ft / 2,054 m 301.04° 299.42° Concrete 0 ft / 0 m 0 ft / 0 m
34 151 ft / 46 m 5,088 ft / 1,551 m 345.99° 344.37° Asphalt 0 ft / 0 m 0 ft / 0 m

Approach Navaids

Runway Type Ident Frequency Range Bearing (true) Bearing (mag) Slope Elevation
12 Localiser IBPT 110.15 MHz 18 nm / 33 km 121.07° 119.46° - 5 ft / 2 m (AMSL)
12 Glidescope IBPT 110.15 MHz 10 nm / 19 km 121.04° 119.42° 3.00° 12 ft / 4 m (AMSL)
12 DME IBPT 110.15 MHz 18 nm / 33 km - - - 19 ft / 6 m (AMSL)